Portada
METAR-TAF:

METAR-TAF

Aeropuertos :

Aeropuerto Internacional Wattay

Vientián, Laos

latitud: 17-57N, longitud: 102-34E, altitud: 171 m

Observación

El informe se hizo hace 2 horas y 44 minutos, a las 16:30 UTC
Viento 2 kt del sur
Temperatura 27°C
Humedad 94%
Presión 1003 hPa
Visibilidad: 4000 m
Cielo nuboso a una altura de 4000 ft
neblina

METAR: VLVT 181630Z 18002KT 4000 BR BKN040 27/26 Q1003 NOSIG

Hora: 02:14 (19:14 UTC)

Pronóstico

El informe se hizo hace 2 horas y 14 minutos, a las 17:00 UTC
Pronóstico válido del 18 a las 18 UTC al 19 a las 18 UTC
Viento 4 kt del oeste-noroeste
Visibilidad: 8000 m
Nubes dispersas a una altura de 1600 ft
Cielo nuboso a una altura de 8300 ft
Temporalmente
del 18 a las 18 UTC al 18 a las 22 UTC
Visibilidad: 4000 m
Nubes dispersas a una altura de 4000 ft
Cielo nuboso a una altura de 8300 ft
neblina

TAF: VLVT 181700Z 1818/1918 30004KT 8000 SCT016 BKN083 TEMPO 1818/1822 4000 BR SCT040 BKN083

Observaciones y pronósticos meteorológicos de más de 4000 aeropuertos (mensajes METAR y TAF).

Los puntos amarillos y rojos representan las estaciones disponibles.

Ponga el ratón en el punto deseado para ver el nombre de la estación.

Haga clic para ver las observaciones y los pronósticos meteorológicos.

Para cambiar el mapa : haga clic en los botones verdes con una cruz de color negro para hacer un zoom, en el botón verde con un guión para alejar o en las flechas verdes para mapas adyacentes.


METAR-TAF: